Time;durP1;ratioP1;P1;durP2;ratioP2;P2;SDS_P1;SDS_P2;PMS_P1;PMS_P2;Temp;Humidity;BMP_temperature;BMP_pressure;BME280_temperature;BME280_humidity;BME280_pressure;Samples;Min_cycle;Max_cycle;Signal;HPM_P1;HPM_P2
2023/06/24 00:02:14;;;;;;;;;6.00;5.33;;;;;24.50;53.83;11731.69;4917497;28;45558;-86
2023/06/24 00:04:39;;;;;;;;;5.00;5.00;;;;;24.38;53.66;11047.03;4922440;28;45518;-86
2023/06/24 00:07:05;;;;;;;;;4.00;3.67;;;;;24.59;53.76;10710.75;4932700;28;45538;-86
2023/06/24 00:09:30;;;;;;;;;6.00;5.67;;;;;23.84;53.62;10693.81;5017307;28;45637;-86
2023/06/24 00:11:58;;;;;;;;;3.00;3.00;;;;;24.50;53.36;10367.72;4940412;28;45566;-86
2023/06/24 00:14:24;;;;;;;;;4.00;4.00;;;;;24.59;53.70;10369.75;4942640;28;46421;-86
2023/06/24 00:16:51;;;;;;;;;5.33;4.33;;;;;24.00;53.39;11038.31;4929734;28;45423;-86
2023/06/24 00:19:19;;;;;;;;;5.00;5.00;;;;;23.83;52.86;11034.31;4936599;28;45523;-86
2023/06/24 00:21:44;;;;;;;;;4.67;4.67;;;;;23.82;53.43;11034.09;4934914;28;45407;-86
2023/06/24 00:24:10;;;;;;;;;4.00;4.00;;;;;24.41;52.97;10706.69;4948883;28;45610;-86
2023/06/24 00:26:35;;;;;;;;;6.00;4.67;;;;;24.47;53.41;10367.16;4945004;28;45527;-86
2023/06/24 00:29:00;;;;;;;;;4.00;4.00;;;;;24.15;53.81;9338.06;4916093;28;45531;-86
2023/06/24 00:31:26;;;;;;;;;5.00;5.00;;;;;24.28;54.15;9340.56;4916061;28;45666;-86
2023/06/24 00:33:52;;;;;;;;;5.33;4.00;;;;;23.62;53.58;9327.28;4907855;28;46759;-86
2023/06/24 00:36:18;;;;;;;;;5.33;4.33;;;;;24.01;54.40;8313.56;4916905;28;45470;-86
2023/06/24 00:38:43;;;;;;;;;5.00;5.00;;;;;24.25;54.50;7296.34;4933512;28;45563;-85
2023/06/24 00:41:09;;;;;;;;;5.67;5.67;;;;;24.33;54.82;6276.06;4935515;28;45432;-86
2023/06/24 00:43:35;;;;;;;;;6.67;6.00;;;;;24.26;55.24;4913.50;4918650;28;46188;-86
2023/06/24 00:46:00;;;;;;;;;3.67;3.67;;;;;24.11;54.90;4231.09;4931947;28;45840;-85
2023/06/24 00:48:26;;;;;;;;;5.33;4.33;;;;;24.23;55.21;3892.28;4930599;28;45575;-86
2023/06/24 00:50:51;;;;;;;;;4.00;4.00;;;;;23.76;55.74;2867.09;4946915;28;45399;-86
2023/06/24 00:53:18;;;;;;;;;8.00;6.33;;;;;24.15;55.21;2190.88;4927974;28;48072;-86
2023/06/24 00:55:45;;;;;;;;;5.67;5.67;;;;;23.87;55.68;1168.81;4916844;28;45543;-86
2023/06/24 00:58:16;;;;;;;;;5.00;5.00;;;;;23.92;55.98;489.63;4937308;28;45601;-86
2023/06/24 02:18:28;;;;;;;;;5.67;5.33;;;;;21.93;57.35;-2908.00;5763294;22;46339;-82
2023/06/24 02:20:56;;;;;;;;;6.67;6.00;;;;;23.33;57.42;-3924.16;4987506;28;45945;-86
2023/06/24 02:23:23;;;;;;;;;6.67;6.00;;;;;23.29;57.79;-4941.06;4972366;28;45522;-85
2023/06/24 02:25:50;;;;;;;;;9.67;9.67;;;;;23.25;57.82;-5957.56;4943777;28;45721;-85
2023/06/24 02:28:17;;;;;;;;;10.33;8.00;;;;;23.01;58.42;-8326.72;4988130;28;46245;-86
2023/06/24 02:30:43;;;;;;;;;6.67;6.33;;;;;23.23;59.13;-9682.66;4916947;28;45672;-86
2023/06/24 02:33:11;;;;;;;;;5.33;5.33;;;;;23.10;59.45;-10696.50;4965413;28;45903;-86
2023/06/24 02:35:37;;;;;;;;;7.33;7.00;;;;;23.20;59.82;-12050.81;4944182;28;45668;-85
2023/06/24 02:38:03;;;;;;;;;9.33;9.33;;;;;23.18;59.93;-12727.06;4896985;28;46966;-87
2023/06/24 02:40:29;;;;;;;;;6.67;6.67;;;;;23.09;59.72;-13401.91;4901251;28;45424;-86
2023/06/24 02:42:54;;;;;;;;;8.00;8.00;;;;;22.87;60.38;-14074.38;4921331;28;45827;-85
2023/06/24 02:45:20;;;;;;;;;9.00;7.00;;;;;23.02;60.50;-14752.81;4915147;28;45502;-86
2023/06/24 02:47:46;;;;;;;;;8.00;8.00;;;;;22.92;60.42;-15088.91;4997452;28;47001;-86
2023/06/24 02:50:12;;;;;;;;;6.33;6.33;;;;;23.01;60.50;-15428.31;5015938;28;45416;-86
2023/06/24 02:52:38;;;;;;;;;7.00;5.67;;;;;22.76;60.53;-15761.34;4989471;28;45577;-86
2023/06/24 02:55:05;;;;;;;;;7.00;7.00;;;;;22.87;60.89;-16438.88;4915594;28;45472;-86
2023/06/24 02:57:31;;;;;;;;;7.67;6.33;;;;;22.88;61.57;-16776.88;4915678;28;46109;-84
2023/06/24 02:59:57;;;;;;;;;5.33;4.00;;;;;22.58;61.29;-17445.47;4936930;28;45479;-86
2023/06/24 03:02:23;;;;;;;;;8.00;6.67;;;;;22.73;61.13;-17448.88;5015915;28;45353;-87
2023/06/24 03:04:50;;;;;;;;;7.00;7.00;;;;;22.77;61.32;-17787.31;4968027;28;45557;-86
2023/06/24 03:07:20;;;;;;;;;7.00;7.00;;;;;22.76;61.48;-18124.47;4915327;28;45831;-86
2023/06/24 03:09:46;;;;;;;;;7.00;5.00;;;;;22.72;62.26;-18461.09;4915487;28;45396;-86
2023/06/24 03:12:11;;;;;;;;;6.33;6.33;;;;;22.71;61.89;-18798.13;4915667;28;45696;-86
2023/06/24 03:14:37;;;;;;;;;6.33;6.33;;;;;22.48;62.28;-18792.66;4915185;28;45460;-87
2023/06/24 03:17:03;;;;;;;;;8.00;8.00;;;;;22.64;62.64;-19133.75;4915314;28;45435;-87
2023/06/24 03:19:28;;;;;;;;;8.00;6.33;;;;;22.64;62.76;-19133.75;4915177;28;45421;-86
2023/06/24 03:21:53;;;;;;;;;6.33;6.33;;;;;22.51;62.37;-19467.81;4915528;28;45468;-86
2023/06/24 03:24:19;;;;;;;;;8.67;8.00;;;;;22.39;63.16;-19801.84;4916439;28;45461;-87
2023/06/24 03:26:44;;;;;;;;;6.00;6.00;;;;;22.54;63.26;-19805.81;4918093;28;45677;-86
2023/06/24 03:29:10;;;;;;;;;8.67;8.67;;;;;22.49;63.25;-19804.50;4917738;28;46326;-86
2023/06/24 03:31:35;;;;;;;;;6.00;6.00;;;;;22.49;63.65;-19804.50;4916399;28;45467;-87
2023/06/24 03:34:01;;;;;;;;;7.67;6.67;;;;;22.28;63.62;-19801.16;4918940;28;45611;-86
2023/06/24 03:36:26;;;;;;;;;8.33;7.00;;;;;22.04;63.22;-19794.75;4926410;28;46189;-86
2023/06/24 03:38:52;;;;;;;;;6.67;6.33;;;;;21.86;63.31;-19790.25;4918574;28;45474;-85
2023/06/24 03:41:17;;;;;;;;;7.00;7.00;;;;;22.19;63.32;-19798.75;4925582;28;45518;-86
2023/06/24 03:43:44;;;;;;;;;6.67;5.00;;;;;22.42;63.40;-19804.75;4925275;28;46668;-86
2023/06/24 03:46:10;;;;;;;;;6.67;6.33;;;;;22.31;63.70;-19801.94;4922085;28;46551;-86
2023/06/24 03:48:35;;;;;;;;;9.67;8.33;;;;;21.98;63.80;-19793.28;4917671;28;45568;-86
2023/06/24 03:51:01;;;;;;;;;8.00;8.00;;;;;22.39;64.21;-19803.81;4920423;28;45387;-86
2023/06/24 03:53:26;;;;;;;;;6.33;6.33;;;;;22.27;63.87;-19800.75;4918075;28;45632;-86
2023/06/24 03:55:51;;;;;;;;;7.00;7.00;;;;;22.39;63.65;-19803.94;4932188;28;51571;-86
2023/06/24 03:58:17;;;;;;;;;7.33;6.33;;;;;22.38;64.29;-19803.53;4917316;28;45373;-86
2023/06/24 04:00:44;;;;;;;;;7.33;7.33;;;;;22.34;64.63;-19802.63;4919236;28;45484;-86
2023/06/24 04:03:10;;;;;;;;;7.67;6.33;;;;;22.26;64.44;-19800.63;4934956;28;45518;-86
2023/06/24 04:05:36;;;;;;;;;9.00;7.00;;;;;22.12;64.73;-19797.03;4932619;28;45646;-86
2023/06/24 04:08:02;;;;;;;;;6.33;6.00;;;;;22.19;64.70;-19798.63;4936944;28;45467;-86
2023/06/24 04:10:27;;;;;;;;;5.67;5.67;;;;;22.24;65.22;-19800.09;4933488;28;45391;-87
2023/06/24 04:12:53;;;;;;;;;9.00;8.33;;;;;22.11;65.13;-19796.75;4923822;28;45473;-87
2023/06/24 04:15:21;;;;;;;;;8.00;6.67;;;;;22.10;65.34;-19796.50;4918951;28;46883;-86
2023/06/24 04:17:46;;;;;;;;;7.33;7.33;;;;;22.26;65.65;-19800.63;4917378;28;45418;-86
2023/06/24 04:20:11;;;;;;;;;7.33;7.33;;;;;22.27;65.03;-19800.88;4967143;28;55957;-86
2023/06/24 04:22:38;;;;;;;;;9.33;7.33;;;;;22.19;65.11;-19798.63;4992106;28;45682;-86
2023/06/24 04:27:33;;;;;;;;;10.00;8.00;;;;;22.21;65.06;-19799.16;4875334;28;45475;-81
2023/06/24 04:30:00;;;;;;;;;8.00;8.00;;;;;22.25;65.19;-19800.22;4878841;28;45429;-81
2023/06/24 04:32:25;;;;;;;;;8.00;7.00;;;;;22.09;65.76;-19796.22;4860983;29;45644;-81
2023/06/24 04:34:50;;;;;;;;;11.33;9.00;;;;;22.26;65.87;-19800.47;4869043;28;46089;-81
2023/06/24 04:37:16;;;;;;;;;9.00;8.00;;;;;22.17;65.54;-19798.09;4878223;28;48276;-81
2023/06/24 04:39:42;;;;;;;;;9.00;7.67;;;;;22.26;65.89;-19800.63;4871310;28;46104;-81
2023/06/24 04:42:08;;;;;;;;;8.00;7.00;;;;;22.22;65.66;-19799.56;4860801;28;45514;-81
2023/06/24 04:44:33;;;;;;;;;6.33;6.33;;;;;22.31;65.99;-19801.94;4861112;28;47402;-81
2023/06/24 04:46:58;;;;;;;;;7.00;6.00;;;;;22.36;65.21;-19803.00;4879073;28;46174;-81
2023/06/24 04:49:24;;;;;;;;;10.00;8.33;;;;;22.33;65.56;-19802.47;4873429;28;45511;-81
2023/06/24 04:51:49;;;;;;;;;9.00;7.33;;;;;22.40;65.54;-19804.22;4863893;28;45401;-81
2023/06/24 04:54:14;;;;;;;;;13.00;9.00;;;;;22.31;64.67;-19801.81;4876042;29;45421;-81
2023/06/24 04:56:41;;;;;;;;;9.00;8.00;;;;;22.42;65.69;-19804.59;4860097;28;45437;-81
2023/06/24 04:59:06;;;;;;;;;7.33;7.00;;;;;22.43;64.90;-19805.00;4873126;28;45428;-81
2023/06/24 05:01:32;;;;;;;;;9.00;8.00;;;;;22.34;64.46;-19802.63;4877792;29;45475;-81
2023/06/24 05:03:57;;;;;;;;;9.33;9.33;;;;;22.44;64.44;-19805.28;4878694;28;46158;-81
2023/06/24 05:06:23;;;;;;;;;6.67;6.00;;;;;22.47;63.31;-19806.06;4873328;28;45419;-81
2023/06/24 05:08:48;;;;;;;;;7.00;7.00;;;;;22.42;64.28;-19804.75;4878781;28;45601;-81
2023/06/24 05:11:13;;;;;;;;;10.00;8.67;;;;;22.52;65.33;-19807.41;4878125;28;45496;-81
2023/06/24 05:13:39;;;;;;;;;9.00;7.67;;;;;22.53;65.58;-19807.53;4877814;28;46263;-81
2023/06/24 05:16:05;;;;;;;;;11.00;9.67;;;;;22.61;64.91;-19809.53;4873871;29;45652;-81
2023/06/24 05:18:30;;;;;;;;;6.67;6.67;;;;;22.48;64.47;-19806.34;4862119;28;45760;-81
2023/06/24 05:20:56;;;;;;;;;6.33;6.33;;;;;22.68;63.27;-19811.38;4867221;29;45542;-81
2023/06/24 05:23:21;;;;;;;;;6.33;4.33;;;;;22.54;62.53;-19807.94;4859869;28;45526;-81
2023/06/24 05:25:47;;;;;;;;;5.67;5.00;;;;;22.75;61.74;-19813.38;4870966;28;45452;-81
2023/06/24 05:28:12;;;;;;;;;4.00;4.00;;;;;22.82;61.60;-19814.97;4862862;28;45827;-81
2023/06/24 05:30:38;;;;;;;;;7.33;7.33;;;;;22.86;60.67;-19816.03;4870170;28;45833;-81
2023/06/24 05:33:03;;;;;;;;;6.00;6.00;;;;;22.82;61.25;-19815.09;4876314;28;45460;-81
2023/06/24 05:35:28;;;;;;;;;5.67;5.67;;;;;22.89;60.22;-19816.97;4871215;29;45540;-81
2023/06/24 05:37:53;;;;;;;;;4.67;4.00;;;;;22.96;59.96;-19818.81;4872720;28;46135;-81
2023/06/24 05:40:19;;;;;;;;;5.67;5.00;;;;;23.05;59.37;-19820.97;4862731;28;45872;-81
2023/06/24 05:42:44;;;;;;;;;4.33;4.33;;;;;23.09;59.20;-19822.03;4870217;28;46212;-81
2023/06/24 05:45:10;;;;;;;;;5.00;5.00;;;;;23.11;59.05;-19822.69;4864372;28;45470;-79
2023/06/24 05:47:36;;;;;;;;;5.33;5.33;;;;;23.08;58.99;-19819.78;4863090;28;45546;-78
2023/06/24 05:50:02;;;;;;;;;6.00;4.33;;;;;23.20;58.77;-19822.97;4871107;29;45566;-79
2023/06/24 05:52:28;;;;;;;;;4.00;3.67;;;;;23.13;59.01;-19821.09;4864573;28;46874;-80
2023/06/24 05:54:54;;;;;;;;;6.00;5.00;;;;;23.33;57.74;-19826.41;4862283;29;45705;-80
2023/06/24 05:57:19;;;;;;;;;6.33;5.00;;;;;23.33;57.95;-19826.28;4870601;28;45624;-80
2023/06/24 05:59:44;;;;;;;;;4.00;4.00;;;;;23.35;58.63;-19489.16;4881155;28;45558;-80
2023/06/24 06:02:10;;;;;;;;;6.00;4.33;;;;;23.32;57.35;-19488.38;4875209;28;45833;-80
2023/06/24 06:04:35;;;;;;;;;6.67;5.00;;;;;23.44;57.18;-19491.50;4863830;29;45330;-80
2023/06/24 06:07:00;;;;;;;;;6.33;5.33;;;;;23.67;56.41;-19159.34;4878165;28;45581;-80
2023/06/24 06:09:26;;;;;;;;;6.00;3.33;;;;;23.53;56.53;-19156.03;4872100;29;45873;-80
2023/06/24 06:11:51;;;;;;;;;5.00;5.00;;;;;23.60;56.18;-18819.81;4872639;28;45894;-80
2023/06/24 06:14:16;;;;;;;;;4.67;4.67;;;;;23.80;56.12;-18824.81;4870229;29;50462;-80
2023/06/24 06:16:42;;;;;;;;;4.00;4.00;;;;;23.84;56.41;-18825.69;4874166;28;45736;-80
2023/06/24 06:19:07;;;;;;;;;5.00;4.00;;;;;23.87;56.07;-18826.31;4872186;28;45539;-80
2023/06/24 06:21:32;;;;;;;;;3.33;3.00;;;;;23.93;56.39;-18827.81;4868273;28;46024;-80
2023/06/24 06:23:58;;;;;;;;;5.00;5.00;;;;;23.97;55.96;-18490.72;4860081;28;45500;-80
2023/06/24 06:26:23;;;;;;;;;4.00;3.33;;;;;23.79;56.19;-18486.56;4877020;28;45516;-81
2023/06/24 06:28:49;;;;;;;;;3.67;3.67;;;;;23.84;56.01;-18825.69;4877922;29;45496;-81
2023/06/24 06:31:15;;;;;;;;;6.00;5.33;;;;;23.83;56.11;-18487.28;4870968;28;45796;-81
2023/06/24 06:33:40;;;;;;;;;4.33;4.33;;;;;24.15;56.14;-18495.09;4866800;28;45509;-81
2023/06/24 06:36:06;;;;;;;;;6.33;5.67;;;;;24.02;55.04;-18492.03;4873190;28;45832;-80
2023/06/24 06:38:33;;;;;;;;;4.67;4.00;;;;;24.20;55.94;-18496.19;4892893;28;45590;-81
2023/06/24 06:40:59;;;;;;;;;8.00;5.00;;;;;24.32;55.60;-18499.09;4872626;28;46515;-81
2023/06/24 06:43:24;;;;;;;;;5.67;5.00;;;;;24.25;55.14;-18497.41;4873781;29;45781;-80
2023/06/24 06:45:49;;;;;;;;;2.67;2.33;;;;;24.38;54.99;-18162.09;4875085;28;45627;-82
2023/06/24 06:48:14;;;;;;;;;5.67;5.67;;;;;24.47;54.68;-18164.25;4882696;28;45399;-82
2023/06/24 06:50:40;;;;;;;;;4.67;4.67;;;;;24.28;54.75;-18159.72;4871906;29;45508;-82
2023/06/24 06:53:05;;;;;;;;;4.00;4.00;;;;;24.59;54.33;-17828.50;4874254;28;45447;-80
2023/06/24 06:55:30;;;;;;;;;5.33;4.00;;;;;24.60;54.14;-17490.22;4872697;28;45556;-82
2023/06/24 06:57:56;;;;;;;;;4.33;4.33;;;;;24.66;54.08;-17830.03;4873845;28;45558;-81
2023/06/24 07:00:21;;;;;;;;;4.33;4.33;;;;;24.78;54.01;-17494.31;4869320;28;45407;-81
2023/06/24 07:02:47;;;;;;;;;4.67;4.67;;;;;24.83;52.41;-16479.25;4870605;28;45953;-81
2023/06/24 07:05:12;;;;;;;;;3.33;3.33;;;;;24.88;52.26;-15802.69;4866218;28;45798;-81
2023/06/24 07:07:41;;;;;;;;;4.00;4.00;;;;;24.92;51.19;-15464.63;4870585;29;45547;-81
2023/06/24 07:10:07;;;;;;;;;5.00;3.00;;;;;24.99;52.09;-15126.97;4863328;28;46174;-81
2023/06/24 07:12:32;;;;;;;;;4.33;3.33;;;;;24.92;50.91;-14447.84;4870131;29;45546;-80
2023/06/24 07:14:58;;;;;;;;;4.33;4.33;;;;;24.97;50.34;-13431.63;4879530;28;45516;-80
2023/06/24 07:17:23;;;;;;;;;3.00;3.00;;;;;25.04;50.46;-13093.53;4896128;28;45480;-80
2023/06/24 07:19:48;;;;;;;;;4.00;4.00;;;;;25.09;50.69;-13433.38;4883104;28;45499;-82
2023/06/24 07:22:14;;;;;;;;;4.33;4.33;;;;;25.13;50.73;-13094.84;4871750;28;45938;-80
2023/06/24 07:24:40;;;;;;;;;5.00;5.00;;;;;24.99;50.18;-12753.59;4882065;29;45528;-80
2023/06/24 07:27:05;;;;;;;;;5.00;4.00;;;;;24.98;50.80;-12753.53;4872427;28;45495;-81
2023/06/24 07:29:31;;;;;;;;;4.67;4.67;;;;;25.13;50.46;-12755.69;4875126;28;46383;-84
2023/06/24 07:31:56;;;;;;;;;4.33;4.33;;;;;24.88;52.08;-13430.16;4875710;28;45401;-85
2023/06/24 07:34:22;;;;;;;;;3.67;3.67;;;;;25.31;51.87;-13776.19;4876718;29;45785;-84
2023/06/24 07:36:47;;;;;;;;;3.00;3.00;;;;;25.46;51.36;-13778.66;4877749;29;45459;-85
2023/06/24 07:39:12;;;;;;;;;4.00;3.00;;;;;25.52;50.13;-12761.31;4875989;29;45639;-83
2023/06/24 07:41:38;;;;;;;;;2.00;2.00;;;;;25.64;49.83;-12084.13;4886530;28;45539;-83
2023/06/24 07:44:04;;;;;;;;;3.00;3.00;;;;;25.59;48.98;-11404.22;4876863;28;45916;-85
2023/06/24 07:46:29;;;;;;;;;2.67;2.67;;;;;25.80;47.88;-9368.09;4873318;28;45858;-84
2023/06/24 07:48:55;;;;;;;;;2.67;2.67;;;;;25.82;47.74;-9028.34;4876648;28;46201;-83
2023/06/24 07:51:20;;;;;;;;;1.00;1.00;;;;;25.97;47.15;-8009.47;4875873;28;45522;-82
2023/06/24 07:53:45;;;;;;;;;4.00;2.67;;;;;26.05;47.33;-7669.91;4877926;29;45484;-82
2023/06/24 07:56:11;;;;;;;;;2.00;2.00;;;;;26.05;46.47;-5968.63;4879602;28;45475;-82
2023/06/24 07:58:38;;;;;;;;;3.00;3.00;;;;;26.19;48.42;-8011.00;4876909;28;45672;-82
2023/06/24 08:01:03;;;;;;;;;4.00;3.00;;;;;26.05;47.68;-6989.47;4879099;28;45452;-82
2023/06/24 08:03:29;;;;;;;;;3.00;3.00;;;;;26.30;47.23;-6650.47;4874534;29;45741;-84
2023/06/24 08:05:54;;;;;;;;;3.00;3.00;;;;;26.34;48.42;-7331.44;4869761;28;45451;-81
2023/06/24 08:08:20;;;;;;;;;4.33;3.67;;;;;26.31;47.96;-6310.06;4874915;28;46197;-81
2023/06/24 08:10:46;;;;;;;;;3.67;3.00;;;;;26.48;49.22;-8693.81;4877125;28;45456;-82
2023/06/24 08:13:11;;;;;;;;;3.00;3.00;;;;;26.51;48.98;-8353.66;4876033;28;45624;-82
2023/06/24 08:15:36;;;;;;;;;3.33;3.33;;;;;26.61;50.13;-9715.88;4870419;28;45500;-82
2023/06/24 08:18:02;;;;;;;;;2.33;2.33;;;;;26.67;50.15;-10056.75;4873468;28;46739;-82
2023/06/24 08:20:27;;;;;;;;;3.67;3.00;;;;;26.72;49.90;-9716.94;4860218;28;45488;-82
2023/06/24 08:22:52;;;;;;;;;3.67;3.67;;;;;26.65;50.07;-9716.28;4876787;29;45887;-82
2023/06/24 08:25:18;;;;;;;;;3.33;3.33;;;;;26.88;49.07;-9378.03;4861246;29;46000;-82
2023/06/24 08:27:46;;;;;;;;;3.67;3.67;;;;;26.94;45.82;-4949.50;4856819;28;47967;-82
2023/06/24 08:30:12;;;;;;;;;4.00;4.00;;;;;27.10;47.76;-7335.97;4880198;28;45519;-82
2023/06/24 08:32:38;;;;;;;;;4.00;4.00;;;;;27.17;47.94;-7677.19;4876185;28;45573;-81
2023/06/24 08:35:04;;;;;;;;;3.00;3.00;;;;;27.22;49.42;-8359.03;4876107;28;45353;-81
2023/06/24 08:37:29;;;;;;;;;3.33;2.00;;;;;26.56;48.84;-8354.03;4891182;28;46348;-82
2023/06/24 08:39:54;;;;;;;;;2.33;2.33;;;;;27.23;48.26;-8018.38;4871136;28;45524;-83
2023/06/24 08:42:20;;;;;;;;;2.67;2.33;;;;;27.51;48.76;-8702.13;4875164;29;45572;-82
2023/06/24 08:44:45;;;;;;;;;3.67;3.33;;;;;27.66;48.02;-8362.38;4870525;28;45598;-83
2023/06/24 08:47:45;;;;;;;;;4.00;2.67;;;;;27.85;48.45;-9045.94;4900358;23;47146;-83
2023/06/24 08:50:22;;;;;;;;;3.67;3.33;;;;;26.98;46.94;-6313.00;4946150;28;45563;-83
2023/06/24 08:53:18;;;;;;;;;3.00;3.00;;;;;28.91;46.34;-8030.13;4913080;28;45452;-84
2023/06/24 08:55:48;;;;;;;;;2.00;2.00;;;;;29.53;41.61;525.47;4930051;28;45686;-85
2023/06/24 08:58:17;;;;;;;;;2.33;2.33;;;;;29.99;38.13;20130.47;4931745;28;45654;-84
2023/06/24 09:11:09;;;;;;;;;3.00;3.00;;;;;30.60;41.14;15325.09;5661921;22;46173;-89
2023/06/24 09:23:57;;;;;;;;;3.00;3.00;;;;;30.83;40.56;22244.66;4890334;28;45967;-94
2023/06/24 09:34:12;;;;;;;;;3.67;3.67;;;;;31.39;39.06;30952.31;4900122;28;45560;-89
2023/06/24 09:36:42;;;;;;;;;4.00;4.00;;;;;31.46;40.06;29113.34;4921662;22;46065;-87
2023/06/24 09:44:21;;;;;;;;;3.00;3.00;;;;;32.18;39.32;28416.34;5028865;23;45364;-94
2023/06/24 09:46:47;;;;;;;;;3.33;3.33;;;;;32.33;39.25;29209.56;4960459;23;45423;-90
2023/06/24 09:49:13;;;;;;;;;3.67;3.67;;;;;32.51;38.94;29251.66;4997155;28;46314;-90
2023/06/24 09:51:43;;;;;;;;;3.00;3.00;;;;;33.04;38.82;28842.31;4998631;28;45694;-90
2023/06/24 09:54:11;;;;;;;;;5.00;4.00;;;;;33.40;37.78;30685.19;4998119;28;45600;-90
2023/06/24 09:56:39;;;;;;;;;3.00;3.00;;;;;34.01;36.91;32343.81;5000936;28;45435;-90
2023/06/24 09:59:06;;;;;;;;;3.67;3.67;;;;;35.16;35.46;34834.03;4977045;28;47177;-92
2023/06/24 10:01:35;;;;;;;;;3.67;3.67;;;;;36.42;33.25;41440.03;4995635;28;45487;-92
2023/06/24 10:04:02;;;;;;;;;2.67;2.33;;;;;37.29;32.26;47897.97;4997695;28;45404;-91
2023/06/24 10:06:28;;;;;;;;;3.33;3.33;;;;;37.53;31.21;51652.22;4998385;28;45451;-91
2023/06/24 10:08:54;;;;;;;;;3.67;3.67;;;;;37.90;31.09;52878.03;4996909;28;46312;-91
2023/06/24 10:11:19;;;;;;;;;3.33;3.33;;;;;37.90;31.08;54046.44;5000628;28;45438;-92
2023/06/24 10:13:45;;;;;;;;;4.00;4.00;;;;;38.25;29.21;57079.09;4997192;28;45762;-91
2023/06/24 10:16:11;;;;;;;;;3.00;3.00;;;;;37.81;30.95;57447.59;4978294;28;45618;-93
2023/06/24 10:18:38;;;;;;;;;1.67;1.67;;;;;38.25;30.49;57456.94;4994028;28;45661;-93
2023/06/24 10:21:11;;;;;;;;;3.00;3.00;;;;;38.14;31.23;57532.00;5003511;28;45415;-93
2023/06/24 10:23:49;;;;;;;;;2.33;2.33;;;;;38.70;30.91;57798.00;4977207;28;45486;-89
2023/06/24 10:26:35;;;;;;;;;2.00;2.00;;;;;38.83;30.29;58180.38;4989774;28;45524;-90
2023/06/24 10:29:07;;;;;;;;;2.33;2.33;;;;;38.94;29.08;59343.38;4996348;28;46792;-89
2023/06/24 10:31:42;;;;;;;;;1.00;1.00;;;;;38.61;29.87;59823.78;4977852;28;45373;-89
2023/06/24 10:34:23;;;;;;;;;2.67;2.67;;;;;38.70;29.50;60001.25;4996006;28;45458;-90
2023/06/24 10:37:07;;;;;;;;;3.00;3.00;;;;;38.82;29.92;60018.56;4995624;28;45510;-85
2023/06/24 10:39:50;;;;;;;;;4.00;2.33;;;;;38.97;29.14;60105.72;4994701;28;45690;-84
2023/06/24 10:42:27;;;;;;;;;1.33;1.33;;;;;39.02;29.41;60293.00;4989911;28;45489;-88
2023/06/24 10:45:02;;;;;;;;;2.33;2.33;;;;;38.84;29.16;60726.94;4993593;28;46652;-96
2023/06/24 10:47:29;;;;;;;;;3.33;1.33;;;;;38.98;29.65;60887.25;4964575;28;45333;-96
2023/06/24 10:49:55;;;;;;;;;2.33;2.33;;;;;38.82;29.16;61142.06;4977692;28;47397;-96
2023/06/24 10:52:22;;;;;;;;;3.00;3.00;;;;;38.82;29.46;61205.53;4947487;28;45487;-96
2023/06/24 10:54:49;;;;;;;;;2.33;2.33;;;;;38.86;29.83;61303.00;4976063;28;45640;-96
2023/06/24 10:57:15;;;;;;;;;2.33;2.33;;;;;38.59;29.32;61319.94;4977142;28;46678;-96
2023/06/24 10:59:44;;;;;;;;;3.67;2.33;;;;;37.94;29.30;61440.31;4974023;28;46690;-96
2023/06/24 11:02:14;;;;;;;;;3.00;3.00;;;;;38.75;29.56;61614.91;4994784;22;45438;-92
2023/06/24 11:04:43;;;;;;;;;3.33;3.33;;;;;38.73;29.61;61712.13;4913275;28;45571;-87
2023/06/24 11:07:09;;;;;;;;;3.00;3.00;;;;;38.53;29.28;61809.69;5148747;22;45570;-87
2023/06/24 11:09:34;;;;;;;;;3.00;3.00;;;;;38.48;29.44;62207.69;4919796;28;46691;-87
2023/06/24 11:12:02;;;;;;;;;4.67;3.00;;;;;38.38;29.55;62294.16;4922998;28;45533;-87
2023/06/24 11:14:34;;;;;;;;;5.00;3.33;;;;;37.90;29.88;62566.13;5165137;23;45538;-89
2023/06/24 11:17:03;;;;;;;;;3.67;3.67;;;;;37.99;29.59;62686.56;4930287;28;45503;-86
2023/06/24 11:19:30;;;;;;;;;4.00;4.00;;;;;37.92;30.06;62681.84;5047503;22;47235;-96
2023/06/24 11:22:00;;;;;;;;;5.33;4.67;;;;;37.96;30.06;62595.13;4922625;28;45546;-96
2023/06/24 11:24:27;;;;;;;;;3.00;3.00;;;;;37.80;30.50;62591.81;4916602;28;45590;-94
2023/06/24 11:26:52;;;;;;;;;5.00;5.00;;;;;37.82;30.04;62689.91;4922010;28;45506;-92
2023/06/24 11:29:18;;;;;;;;;2.33;1.33;;;;;37.94;30.16;62603.50;4923675;28;45581;-95
2023/06/24 11:31:45;;;;;;;;;2.67;2.67;;;;;38.00;30.05;62596.13;4927144;28;46091;-93
2023/06/24 11:34:10;;;;;;;;;5.00;4.00;;;;;37.62;29.77;62655.25;4927832;28;45499;-94
2023/06/24 11:36:36;;;;;;;;;3.00;3.00;;;;;37.80;29.87;62788.06;4905440;28;45890;-93
2023/06/24 11:39:02;;;;;;;;;3.33;2.33;;;;;37.57;29.84;62821.81;4917705;28;46552;-93
2023/06/24 11:41:28;;;;;;;;;4.00;4.00;;;;;37.49;29.93;62785.13;4901321;28;45749;-96
2023/06/24 11:43:53;;;;;;;;;5.00;5.00;;;;;37.95;29.97;62867.00;4916265;28;45609;-95
2023/06/24 11:46:33;;;;;;;;;5.67;4.33;;;;;37.78;30.05;63116.13;4916022;28;45558;-96
2023/06/24 11:49:06;;;;;;;;;4.67;3.00;;;;;37.50;30.77;62993.34;4904693;28;47575;-96
2023/06/24 11:51:32;;;;;;;;;6.00;4.00;;;;;37.71;30.27;63213.34;4918375;28;45576;-96
2023/06/24 11:54:05;;;;;;;;;5.67;5.00;;;;;37.56;30.30;63412.63;4916969;28;45487;-96
2023/06/24 11:56:38;;;;;;;;;4.00;4.00;;;;;37.27;30.39;63500.22;5113428;22;49373;-87
2023/06/24 11:59:17;;;;;;;;;4.33;4.33;;;;;36.90;30.53;63712.28;4892700;28;46649;-86
2023/06/24 12:01:43;;;;;;;;;5.67;3.67;;;;;36.18;30.74;63709.31;4895071;28;45763;-84
2023/06/24 12:04:13;;;;;;;;;5.00;4.00;;;;;35.94;31.37;63904.16;5188904;22;45602;-87
2023/06/24 12:06:40;;;;;;;;;4.33;4.33;;;;;36.01;31.56;63985.50;4925397;28;45514;-86
2023/06/24 12:09:06;;;;;;;;;4.67;4.33;;;;;35.83;32.45;64137.34;4934879;28;45563;-86
2023/06/24 12:11:31;;;;;;;;;5.33;4.33;;;;;35.38;32.59;64118.81;4928922;28;47762;-86
2023/06/24 12:16:32;;;;;;;;;4.33;4.33;;;;;34.80;33.71;64216.63;5039633;23;45682;-87
2023/06/24 12:18:57;;;;;;;;;6.00;4.33;;;;;34.63;33.97;64206.75;5005899;28;47254;-84
2023/06/24 12:23:58;;;;;;;;;6.00;5.00;;;;;34.14;34.21;64244.53;5016565;22;46215;-82
2023/06/24 12:26:23;;;;;;;;;5.00;5.00;;;;;33.90;34.92;64308.59;4960357;28;45617;-87
2023/06/24 12:28:49;;;;;;;;;9.00;6.00;;;;;33.61;34.94;64212.59;5162787;23;47457;-84
2023/06/24 12:31:14;;;;;;;;;6.33;5.00;;;;;33.56;35.48;64149.56;4909458;28;45784;-85
2023/06/24 12:33:39;;;;;;;;;6.00;6.00;;;;;33.10;36.13;64067.34;5242297;22;45805;-85
2023/06/24 12:36:05;;;;;;;;;6.00;5.00;;;;;33.21;35.75;64056.97;4932763;28;45425;-85
2023/06/24 12:38:30;;;;;;;;;8.00;5.67;;;;;33.00;36.25;64007.63;4937994;28;47068;-85
2023/06/24 12:40:57;;;;;;;;;5.00;5.00;;;;;32.86;36.67;64027.88;5171733;23;45487;-86
2023/06/24 12:43:22;;;;;;;;;5.00;5.00;;;;;32.21;35.71;64023.31;4935124;28;45502;-84
2023/06/24 12:45:50;;;;;;;;;5.00;5.00;;;;;32.79;36.48;63755.38;4933518;28;45536;-84
2023/06/24 12:48:16;;;;;;;;;6.67;6.67;;;;;32.17;37.31;63744.00;5055689;22;47096;-96
2023/06/24 12:50:41;;;;;;;;;5.00;5.00;;;;;32.48;37.21;63579.91;4933775;28;45447;-94
2023/06/24 12:55:42;;;;;;;;;5.67;5.67;;;;;32.48;37.85;63497.34;5319884;23;46455;-85
2023/06/24 12:58:07;;;;;;;;;6.00;6.00;;;;;32.39;37.91;63453.09;4895529;28;46464;-85
2023/06/24 13:00:33;;;;;;;;;6.00;5.00;;;;;32.32;37.88;63302.81;4908553;28;45852;-84
2023/06/24 13:02:58;;;;;;;;;6.00;6.00;;;;;32.19;37.88;63179.94;4900760;28;45445;-83
2023/06/24 13:05:24;;;;;;;;;6.33;6.00;;;;;31.97;37.74;63194.91;4927448;28;45519;-81
2023/06/24 13:07:50;;;;;;;;;6.00;5.00;;;;;31.45;38.13;63248.81;4923272;28;46594;-83
2023/06/24 13:10:15;;;;;;;;;6.33;4.00;;;;;32.02;38.21;62910.22;4915040;28;45454;-84
2023/06/24 13:12:41;;;;;;;;;5.67;5.67;;;;;31.95;38.57;62859.47;4889037;28;45419;-84
2023/06/24 13:15:09;;;;;;;;;7.67;6.00;;;;;31.71;38.87;62730.41;4906060;28;45412;-83
2023/06/24 13:17:34;;;;;;;;;5.33;4.00;;;;;31.26;38.89;62639.41;4898720;28;45475;-84
2023/06/24 13:19:59;;;;;;;;;7.00;7.00;;;;;31.75;38.82;62456.25;4902967;28;46373;-84
2023/06/24 13:22:25;;;;;;;;;7.00;6.00;;;;;31.69;38.72;62572.66;4913173;28;45954;-85
2023/06/24 13:24:50;;;;;;;;;7.33;5.33;;;;;31.13;38.95;62620.50;4905812;28;45598;-85
2023/06/24 13:27:16;;;;;;;;;6.33;6.00;;;;;30.90;38.31;62978.06;4904117;28;46047;-84
2023/06/24 13:29:42;;;;;;;;;4.67;4.67;;;;;31.13;38.74;62822.34;4905763;28;45479;-83